Time,TemperatureF,DewpointF,PressureIn,WindDirection,WindDirectionDegrees,WindSpeedMPH,WindSpeedGustMPH,Humidity,HourlyPrecipIn,Conditions,Clouds,dailyrainin,SoftwareType,DateUTC
2013-01-21 00:00:00,36.4,3.0,30.18,ENE,68,0.0,3.6,24,-99.99,,,-99.99,WSDL version 420,2013-01-21 08:00:00,
2013-01-21 00:05:00,35.5,2.7,30.18,ENE,68,1.2,2.7,25,-99.99,,,-99.99,WSDL version 420,2013-01-21 08:05:00,
2013-01-21 00:10:00,34.7,2.5,30.18,ENE,68,0.0,2.7,25,-99.99,,,-99.99,WSDL version 420,2013-01-21 08:10:00,
2013-01-21 00:15:00,34.9,2.6,30.18,ENE,68,2.6,3.1,25,-99.99,,,-99.99,WSDL version 420,2013-01-21 08:15:00,
2013-01-21 00:20:00,35.4,2.9,30.18,ENE,68,1.0,3.1,24,-99.99,,,-99.99,WSDL version 420,2013-01-21 08:20:00,
2013-01-21 00:25:00,35.7,2.4,30.18,ENE,68,2.6,3.6,24,-99.99,,,-99.99,WSDL version 420,2013-01-21 08:25:00,
2013-01-21 00:30:00,36.0,2.6,30.18,ENE,68,2.5,4.0,24,-99.99,,,-99.99,WSDL version 420,2013-01-21 08:30:00,
2013-01-21 00:35:00,35.6,2.5,30.18,ENE,68,0.3,4.0,25,-99.99,,,-99.99,WSDL version 420,2013-01-21 08:35:00,
2013-01-21 00:40:00,34.8,2.6,30.18,ENE,68,0.0,2.7,25,-99.99,,,-99.99,WSDL version 420,2013-01-21 08:40:00,
2013-01-21 00:45:00,34.2,2.0,30.18,ENE,68,0.0,0.0,25,-99.99,,,-99.99,WSDL version 420,2013-01-21 08:45:00,
2013-01-21 00:50:00,34.0,1.8,30.18,ENE,68,0.0,0.0,25,-99.99,,,-99.99,WSDL version 420,2013-01-21 08:50:00,
2013-01-21 00:55:00,33.9,1.7,30.18,ENE,68,0.5,3.1,25,-99.99,,,-99.99,WSDL version 420,2013-01-21 08:55:00,
2013-01-21 01:00:00,33.4,1.3,30.18,ENE,68,0.0,3.1,25,-99.99,,,-99.99,WSDL version 420,2013-01-21 09:00:00,
2013-01-21 01:05:00,34.5,2.3,30.18,ENE,68,2.3,3.1,25,-99.99,,,-99.99,WSDL version 420,2013-01-21 09:05:00,
2013-01-21 01:10:00,35.2,2.7,30.18,ENE,68,0.0,3.1,25,-99.99,,,-99.99,WSDL version 420,2013-01-21 09:10:00,
2013-01-21 01:15:00,34.4,2.2,30.18,ENE,68,2.4,3.1,25,-99.99,,,-99.99,WSDL version 420,2013-01-21 09:15:00,
2013-01-21 01:20:00,33.8,1.6,30.18,NE,34,0.0,4.9,25,-99.99,,,-99.99,WSDL version 420,2013-01-21 09:20:00,
2013-01-21 01:25:00,33.7,1.6,30.18,SW,225,0.0,4.9,25,-99.99,,,-99.99,WSDL version 420,2013-01-21 09:25:00,
2013-01-21 01:30:00,33.7,1.5,30.18,SW,225,0.0,4.0,25,-99.99,,,-99.99,WSDL version 420,2013-01-21 09:30:00,
2013-01-21 01:35:00,34.8,2.4,30.18,SW,225,3.3,4.0,24,-99.99,,,-99.99,WSDL version 420,2013-01-21 09:35:00,
2013-01-21 01:40:00,36.0,2.7,30.18,SW,225,0.0,4.0,24,-99.99,,,-99.99,WSDL version 420,2013-01-21 09:40:00,
2013-01-21 01:46:00,36.8,3.4,30.21,SW,225,0.0,2.7,24,-99.99,,,-99.99,WSDL version 420,2013-01-21 09:46:00,
2013-01-21 01:51:00,37.5,4.0,30.21,SW,225,0.0,3.1,24,-99.99,,,-99.99,WSDL version 420,2013-01-21 09:51:00,
2013-01-21 01:56:00,38.6,4.9,30.21,SSW,203,1.4,3.1,24,-99.99,,,-99.99,WSDL version 420,2013-01-21 09:56:00,
2013-01-21 02:02:00,39.6,4.8,30.18,SW,217,2.3,4.0,23,-99.99,,,-99.99,WSDL version 420,2013-01-21 10:02:00,
2013-01-21 02:07:00,40.5,5.6,30.18,SSW,213,2.5,4.0,23,-99.99,,,-99.99,WSDL version 420,2013-01-21 10:07:00,
2013-01-21 02:12:00,41.1,6.1,30.18,SW,225,2.9,3.6,23,-99.99,,,-99.99,WSDL version 420,2013-01-21 10:12:00,
2013-01-21 02:17:00,41.7,6.6,30.21,SSW,203,1.4,3.6,23,-99.99,,,-99.99,WSDL version 420,2013-01-21 10:17:00,
2013-01-21 02:22:00,42.0,6.8,30.21,SSW,203,0.0,3.1,23,-99.99,,,-99.99,WSDL version 420,2013-01-21 10:22:00,
2013-01-21 02:27:00,41.8,6.7,30.21,SSW,203,1.4,2.7,23,-99.99,,,-99.99,WSDL version 420,2013-01-21 10:27:00,
2013-01-21 02:32:00,42.2,7.1,30.21,SSW,203,1.5,3.6,23,-99.99,,,-99.99,WSDL version 420,2013-01-21 10:32:00,
2013-01-21 02:37:00,41.9,6.8,30.21,SSW,203,0.0,3.6,23,-99.99,,,-99.99,WSDL version 420,2013-01-21 10:37:00,
2013-01-21 02:42:00,41.3,6.3,30.21,SSW,203,0.0,2.2,23,-99.99,,,-99.99,WSDL version 420,2013-01-21 10:42:00,
2013-01-21 02:48:00,40.9,5.9,30.18,South,180,0.0,2.2,23,-99.99,,,-99.99,WSDL version 420,2013-01-21 10:48:00,
2013-01-21 02:53:00,40.0,5.2,30.18,South,180,0.0,0.0,23,-99.99,,,-99.99,WSDL version 420,2013-01-21 10:53:00,
2013-01-21 02:58:00,38.8,5.0,30.18,South,180,0.0,0.0,24,-99.99,,,-99.99,WSDL version 420,2013-01-21 10:58:00,
2013-01-21 03:03:00,38.7,5.0,30.18,SSW,195,3.1,3.6,24,-99.99,,,-99.99,WSDL version 420,2013-01-21 11:03:00,
2013-01-21 03:08:00,39.0,4.9,30.18,SSW,203,2.9,3.6,23,-99.99,,,-99.99,WSDL version 420,2013-01-21 11:08:00,
2013-01-21 03:13:00,39.6,4.8,30.18,SSW,203,2.7,4.0,23,-99.99,,,-99.99,WSDL version 420,2013-01-21 11:13:00,
2013-01-21 03:19:00,40.0,5.2,30.18,SSW,203,3.1,4.0,23,-99.99,,,-99.99,WSDL version 420,2013-01-21 11:19:00,
2013-01-21 03:25:00,40.0,5.2,30.18,SSW,203,0.0,4.0,23,-99.99,,,-99.99,WSDL version 420,2013-01-21 11:25:00,
2013-01-21 03:30:00,39.5,4.7,30.18,SSW,203,2.9,3.1,23,-99.99,,,-99.99,WSDL version 420,2013-01-21 11:30:00,
2013-01-21 03:35:00,39.6,4.8,30.18,SSW,203,3.3,4.0,23,-99.99,,,-99.99,WSDL version 420,2013-01-21 11:35:00,
2013-01-21 03:40:00,39.9,5.1,30.18,SSW,203,2.7,4.0,23,-99.99,,,-99.99,WSDL version 420,2013-01-21 11:40:00,
2013-01-21 03:45:00,39.8,5.0,30.18,SSW,203,2.9,3.6,23,-99.99,,,-99.99,WSDL version 420,2013-01-21 11:45:00,
2013-01-21 03:50:00,40.0,5.2,30.18,SSW,203,1.7,4.0,23,-99.99,,,-99.99,WSDL version 420,2013-01-21 11:50:00,
2013-01-21 03:55:00,40.0,5.1,30.18,SW,219,1.3,4.0,23,-99.99,,,-99.99,WSDL version 420,2013-01-21 11:55:00,
2013-01-21 17:19:00,59.4,14.5,30.15,NE,45,0.0,0.0,17,-99.99,,,-99.99,WSDL version 420,2013-01-22 01:19:00,
2013-01-21 17:25:00,58.9,14.2,30.15,NE,45,0.0,0.0,17,-99.99,,,-99.99,WSDL version 420,2013-01-22 01:25:00,
2013-01-21 17:30:00,58.5,13.9,30.15,NE,45,0.0,2.2,17,-99.99,,,-99.99,WSDL version 420,2013-01-22 01:30:00,
2013-01-21 17:35:00,57.6,13.1,30.15,NE,45,0.0,2.2,17,-99.99,,,-99.99,WSDL version 420,2013-01-22 01:35:00,
2013-01-21 17:40:00,56.6,12.3,30.15,South,180,2.9,4.5,17,-99.99,,,-99.99,WSDL version 420,2013-01-22 01:40:00,
2013-01-21 17:45:00,55.8,11.6,30.15,South,180,0.2,4.5,17,-99.99,,,-99.99,WSDL version 420,2013-01-22 01:45:00,
2013-01-21 17:50:00,54.8,12.1,30.15,South,180,0.0,3.6,18,-99.99,,,-99.99,WSDL version 420,2013-01-22 01:50:00,
2013-01-21 17:55:00,54.2,11.6,30.15,South,180,0.0,0.0,18,-99.99,,,-99.99,WSDL version 420,2013-01-22 01:55:00,
2013-01-21 18:00:00,53.7,11.2,30.18,South,180,0.0,0.0,18,-99.99,,,-99.99,WSDL version 420,2013-01-22 02:00:00,
2013-01-21 18:05:00,53.4,11.0,30.18,South,180,0.0,0.0,18,-99.99,,,-99.99,WSDL version 420,2013-01-22 02:05:00,
2013-01-21 18:10:00,53.2,10.8,30.18,South,180,0.0,0.0,18,-99.99,,,-99.99,WSDL version 420,2013-01-22 02:10:00,
2013-01-21 18:15:00,53.0,10.6,30.18,South,180,0.0,0.0,18,-99.99,,,-99.99,WSDL version 420,2013-01-22 02:15:00,
2013-01-21 18:20:00,52.1,10.5,30.18,South,180,0.0,2.7,20,-99.99,,,-99.99,WSDL version 420,2013-01-22 02:20:00,
2013-01-21 18:25:00,51.4,12.4,30.18,South,180,0.6,3.6,21,-99.99,,,-99.99,WSDL version 420,2013-01-22 02:25:00,
2013-01-21 18:30:00,50.6,9.9,30.18,SSW,203,0.0,3.6,19,-99.99,,,-99.99,WSDL version 420,2013-01-22 02:30:00,
2013-01-21 18:35:00,50.4,9.7,30.18,SSW,203,0.7,3.1,19,-99.99,,,-99.99,WSDL version 420,2013-01-22 02:35:00,
2013-01-21 18:40:00,50.4,9.7,30.18,SSW,203,2.4,3.6,19,-99.99,,,-99.99,WSDL version 420,2013-01-22 02:40:00,
2013-01-21 18:45:00,50.5,9.8,30.18,SW,225,2.6,4.0,19,-99.99,,,-99.99,WSDL version 420,2013-01-22 02:45:00,
2013-01-21 18:50:00,50.5,9.8,30.18,SW,225,2.9,4.0,19,-99.99,,,-99.99,WSDL version 420,2013-01-22 02:50:00,
2013-01-21 18:55:00,50.5,9.8,30.18,SW,225,2.7,4.0,19,-99.99,,,-99.99,WSDL version 420,2013-01-22 02:55:00,
2013-01-21 19:00:00,50.6,9.8,30.18,SW,225,3.2,4.5,19,-99.99,,,-99.99,WSDL version 420,2013-01-22 03:00:00,
2013-01-21 19:05:00,50.7,9.9,30.18,SW,225,2.5,4.5,19,-99.99,,,-99.99,WSDL version 420,2013-01-22 03:05:00,
2013-01-21 19:10:00,50.2,9.6,30.18,SW,225,0.0,4.0,19,-99.99,,,-99.99,WSDL version 420,2013-01-22 03:10:00,
2013-01-21 19:15:00,49.6,9.0,30.18,SW,225,0.0,2.7,19,-99.99,,,-99.99,WSDL version 420,2013-01-22 03:15:00,
2013-01-21 19:20:00,48.8,8.3,30.18,SW,225,0.0,0.0,19,-99.99,,,-99.99,WSDL version 420,2013-01-22 03:20:00,
2013-01-21 19:25:00,47.7,7.4,30.18,SW,225,0.0,0.0,19,-99.99,,,-99.99,WSDL version 420,2013-01-22 03:25:00,
2013-01-21 19:30:00,46.7,6.6,30.18,SW,225,0.0,0.0,19,-99.99,,,-99.99,WSDL version 420,2013-01-22 03:30:00,
2013-01-21 19:35:00,45.9,7.0,30.18,SW,225,0.0,3.1,20,-99.99,,,-99.99,WSDL version 420,2013-01-22 03:35:00,
2013-01-21 19:40:00,45.3,6.6,30.18,SW,225,0.0,3.1,20,-99.99,,,-99.99,WSDL version 420,2013-01-22 03:40:00,
2013-01-21 19:45:00,44.7,6.1,30.18,SW,225,0.0,3.1,20,-99.99,,,-99.99,WSDL version 420,2013-01-22 03:45:00,
2013-01-21 19:50:00,43.7,5.3,30.18,SW,225,0.0,0.0,20,-99.99,,,-99.99,WSDL version 420,2013-01-22 03:50:00,
2013-01-21 19:55:00,43.3,4.9,30.18,SW,225,0.0,0.0,20,-99.99,,,-99.99,WSDL version 420,2013-01-22 03:55:00,
2013-01-21 20:00:00,43.5,5.1,30.18,SW,225,0.0,0.0,20,-99.99,,,-99.99,WSDL version 420,2013-01-22 04:00:00,
2013-01-21 20:05:00,43.7,5.2,30.18,SW,225,0.0,0.0,20,-99.99,,,-99.99,WSDL version 420,2013-01-22 04:05:00,
2013-01-21 20:10:00,43.6,5.1,30.18,SW,225,0.0,0.0,20,-99.99,,,-99.99,WSDL version 420,2013-01-22 04:10:00,
2013-01-21 20:15:00,43.7,5.3,30.18,SW,225,0.0,0.0,20,-99.99,,,-99.99,WSDL version 420,2013-01-22 04:15:00,
2013-01-21 20:20:00,42.7,5.1,30.18,SW,225,0.0,0.0,21,-99.99,,,-99.99,WSDL version 420,2013-01-22 04:20:00,
2013-01-21 20:25:00,42.4,5.2,30.18,SW,225,0.0,0.0,21,-99.99,,,-99.99,WSDL version 420,2013-01-22 04:25:00,
2013-01-21 20:30:00,41.8,5.1,30.18,SW,225,0.0,0.0,23,-99.99,,,-99.99,WSDL version 420,2013-01-22 04:30:00,
2013-01-21 20:35:00,41.1,6.1,30.18,SW,225,0.0,0.0,23,-99.99,,,-99.99,WSDL version 420,2013-01-22 04:35:00,
2013-01-21 20:40:00,40.9,5.9,30.18,SW,225,0.0,0.0,23,-99.99,,,-99.99,WSDL version 420,2013-01-22 04:40:00,
2013-01-21 20:45:00,40.4,5.5,30.18,SW,225,0.0,0.0,23,-99.99,,,-99.99,WSDL version 420,2013-01-22 04:45:00,
2013-01-21 20:50:00,40.0,5.2,30.18,SW,225,0.0,0.0,23,-99.99,,,-99.99,WSDL version 420,2013-01-22 04:50:00,
2013-01-21 20:55:00,40.0,5.2,30.18,SW,225,0.0,0.0,23,-99.99,,,-99.99,WSDL version 420,2013-01-22 04:55:00,
2013-01-21 21:00:00,40.1,5.3,30.18,SW,225,2.5,3.1,23,-99.99,,,-99.99,WSDL version 420,2013-01-22 05:00:00,
2013-01-21 21:01:00,40.2,5.3,30.18,SW,225,1.3,3.1,23,-99.99,,,-99.99,WSDL version 420,2013-01-22 05:01:00,
2013-01-21 21:03:00,40.3,5.4,30.18,SW,225,1.1,3.1,23,-99.99,,,-99.99,WSDL version 420,2013-01-22 05:03:00,
2013-01-21 21:04:00,40.4,5.5,30.18,SW,225,0.3,3.1,23,-99.99,,,-99.99,WSDL version 420,2013-01-22 05:04:00,
2013-01-21 21:09:00,40.0,5.2,30.18,SW,225,0.0,2.7,23,-99.99,,,-99.99,WSDL version 420,2013-01-22 05:09:00,
2013-01-21 21:15:00,39.8,5.0,30.18,SW,225,0.0,2.2,23,-99.99,,,-99.99,WSDL version 420,2013-01-22 05:15:00,
2013-01-21 21:20:00,39.6,4.9,30.18,SW,225,0.0,2.2,23,-99.99,,,-99.99,WSDL version 420,2013-01-22 05:20:00,
2013-01-21 21:25:00,39.8,5.0,30.18,SW,225,0.0,0.0,23,-99.99,,,-99.99,WSDL version 420,2013-01-22 05:25:00,
2013-01-21 21:30:00,39.9,5.1,30.18,SW,225,0.0,0.0,23,-99.99,,,-99.99,WSDL version 420,2013-01-22 05:30:00,
2013-01-21 21:35:00,39.5,4.9,30.18,SW,225,0.0,0.0,24,-99.99,,,-99.99,WSDL version 420,2013-01-22 05:35:00,
2013-01-21 21:41:00,39.1,4.9,30.18,SW,225,0.0,0.0,24,-99.99,,,-99.99,WSDL version 420,2013-01-22 05:41:00,
2013-01-21 21:46:00,39.1,4.9,30.21,SW,225,0.0,0.0,24,-99.99,,,-99.99,WSDL version 420,2013-01-22 05:46:00,
2013-01-21 21:51:00,38.8,5.1,30.21,SW,225,0.0,0.0,24,-99.99,,,-99.99,WSDL version 420,2013-01-22 05:51:00,
2013-01-21 21:56:00,39.4,4.8,30.21,SW,225,0.0,0.0,23,-99.99,,,-99.99,WSDL version 420,2013-01-22 05:56:00,
2013-01-21 22:01:00,39.4,3.0,30.21,SW,225,0.0,0.0,21,-99.99,,,-99.99,WSDL version 420,2013-01-22 06:01:00,
2013-01-21 22:06:00,39.2,2.5,30.21,SW,225,0.0,0.0,21,-99.99,,,-99.99,WSDL version 420,2013-01-22 06:06:00,
2013-01-21 22:11:00,38.8,2.2,30.21,SW,225,0.0,0.0,21,-99.99,,,-99.99,WSDL version 420,2013-01-22 06:11:00,
2013-01-21 22:16:00,38.3,4.2,30.21,SW,225,0.0,0.0,24,-99.99,,,-99.99,WSDL version 420,2013-01-22 06:16:00,
2013-01-21 22:21:00,37.8,4.2,30.21,SW,225,0.0,0.0,24,-99.99,,,-99.99,WSDL version 420,2013-01-22 06:21:00,
2013-01-21 22:26:00,37.7,4.1,30.21,SW,225,0.7,4.0,24,-99.99,,,-99.99,WSDL version 420,2013-01-22 06:26:00,
2013-01-21 22:31:00,38.0,4.4,30.21,SW,225,0.0,4.0,24,-99.99,,,-99.99,WSDL version 420,2013-01-22 06:31:00,
2013-01-21 22:37:00,37.6,4.0,30.21,SW,225,0.0,2.2,24,-99.99,,,-99.99,WSDL version 420,2013-01-22 06:37:00,
2013-01-21 22:42:00,37.2,3.7,30.21,SW,225,0.0,0.0,24,-99.99,,,-99.99,WSDL version 420,2013-01-22 06:42:00,
2013-01-21 22:47:00,36.7,3.3,30.21,SW,225,0.0,2.2,24,-99.99,,,-99.99,WSDL version 420,2013-01-22 06:47:00,
2013-01-21 22:52:00,36.9,3.5,30.21,SW,225,2.6,3.1,24,-99.99,,,-99.99,WSDL version 420,2013-01-22 06:52:00,
2013-01-21 22:57:00,37.0,3.5,30.21,SW,225,0.0,3.1,24,-99.99,,,-99.99,WSDL version 420,2013-01-22 06:57:00,
2013-01-21 23:02:00,36.9,3.4,30.21,SW,225,0.3,3.1,24,-99.99,,,-99.99,WSDL version 420,2013-01-22 07:02:00,
2013-01-21 23:07:00,36.5,3.1,30.21,SW,225,0.0,2.7,24,-99.99,,,-99.99,WSDL version 420,2013-01-22 07:07:00,
2013-01-21 23:12:00,36.4,3.0,30.21,SW,225,0.0,0.0,24,-99.99,,,-99.99,WSDL version 420,2013-01-22 07:12:00,
2013-01-21 23:17:00,36.4,3.0,30.21,SW,225,0.0,0.0,24,-99.99,,,-99.99,WSDL version 420,2013-01-22 07:17:00,
2013-01-21 23:22:00,35.7,2.4,30.21,SW,225,0.0,0.0,24,-99.99,,,-99.99,WSDL version 420,2013-01-22 07:22:00,
2013-01-21 23:27:00,35.4,3.1,30.21,SW,225,0.3,2.7,25,-99.99,,,-99.99,WSDL version 420,2013-01-22 07:27:00,
2013-01-21 23:32:00,35.0,2.7,30.21,SW,225,0.0,2.7,25,-99.99,,,-99.99,WSDL version 420,2013-01-22 07:32:00,
2013-01-21 23:37:00,34.4,2.2,30.21,SW,225,0.0,2.2,25,-99.99,,,-99.99,WSDL version 420,2013-01-22 07:37:00,
2013-01-21 23:42:00,34.7,2.4,30.21,SW,225,0.0,2.7,25,-99.99,,,-99.99,WSDL version 420,2013-01-22 07:42:00,
2013-01-21 23:47:00,35.0,2.7,30.21,SW,225,0.0,2.7,25,-99.99,,,-99.99,WSDL version 420,2013-01-22 07:47:00,
2013-01-21 23:52:00,34.8,2.5,30.21,SW,225,0.0,2.7,25,-99.99,,,-99.99,WSDL version 420,2013-01-22 07:52:00,
2013-01-21 23:57:00,34.8,2.6,30.21,SW,225,0.0,0.0,25,-99.99,,,-99.99,WSDL version 420,2013-01-22 07:57:00,